createdAt,value
2018-03-18T00:06:46.012Z,26.10
2018-03-18T00:16:56.568Z,26.30
2018-03-18T00:27:09.194Z,26.10
2018-03-18T00:37:20.643Z,26.20
2018-03-18T00:47:28.550Z,26.40
2018-03-18T00:57:41.827Z,27.30
2018-03-18T01:07:53.019Z,27.70
2018-03-18T01:18:01.682Z,27.60
2018-03-18T01:28:16.237Z,27.60
2018-03-18T01:38:27.283Z,27.40
2018-03-18T01:48:42.679Z,27.50
2018-03-18T01:58:51.070Z,27.50
2018-03-18T02:09:02.758Z,30.50
2018-03-18T02:19:12.189Z,30.50
2018-03-18T02:29:32.917Z,34.10
2018-03-18T02:39:51.454Z,34.40
2018-03-18T02:50:04.454Z,33.20
2018-03-18T03:00:13.570Z,33.20
2018-03-18T03:10:24.679Z,29.30
2018-03-18T03:20:36.539Z,29.30
2018-03-18T03:30:48.194Z,30.20
2018-03-18T03:40:58.989Z,30.20
2018-03-18T03:51:19.120Z,30.20
2018-03-18T04:01:33.076Z,29.50
2018-03-18T04:11:47.622Z,30.00
2018-03-18T04:22:01.973Z,29.50
2018-03-18T04:32:11.812Z,29.50
2018-03-18T04:42:26.485Z,30.00
2018-03-18T04:52:40.160Z,30.00
2018-03-18T05:02:58.275Z,30.80
2018-03-18T05:13:19.616Z,31.00
2018-03-18T05:23:30.941Z,31.00
2018-03-18T05:33:42.583Z,31.50
2018-03-18T05:43:53.174Z,30.60
2018-03-18T05:54:03.331Z,31.60
2018-03-18T06:04:13.094Z,31.60
2018-03-18T06:14:29.902Z,31.10
2018-03-18T06:24:48.606Z,31.90
2018-03-18T06:35:02.979Z,29.90
2018-03-18T06:55:35.016Z,31.50
2018-03-18T07:05:48.233Z,31.30
2018-03-18T07:15:59.781Z,31.00
2018-03-18T07:26:13.273Z,30.80
2018-03-18T07:36:23.657Z,31.40
2018-03-18T07:46:35.930Z,32.30
2018-03-18T07:56:51.610Z,32.30
2018-03-18T08:07:04.735Z,32.00
2018-03-18T08:17:16.076Z,32.20
2018-03-18T08:27:26.771Z,31.90
2018-03-18T08:37:37.488Z,31.90
2018-03-18T08:47:51.393Z,31.90
2018-03-18T08:58:02.047Z,32.00
2018-03-18T09:08:14.466Z,32.10
2018-03-18T09:18:24.262Z,32.30
2018-03-18T09:28:42.190Z,32.10
2018-03-18T09:38:53.394Z,32.10
2018-03-18T09:49:09.936Z,32.10
2018-03-18T09:59:21.150Z,32.20
2018-03-18T10:09:37.751Z,32.40
2018-03-18T10:19:47.838Z,32.70
2018-03-18T10:30:03.660Z,32.70
2018-03-18T10:40:16.065Z,32.80
2018-03-18T10:50:27.214Z,33.30
2018-03-18T11:00:42.895Z,33.20
2018-03-18T11:10:58.233Z,33.50
2018-03-18T11:21:10.677Z,33.50
2018-03-18T11:31:35.209Z,33.50
2018-03-18T11:41:55.783Z,33.70
2018-03-18T11:52:04.924Z,33.70
2018-03-18T12:02:14.963Z,33.80
2018-03-18T12:12:29.653Z,33.90
2018-03-18T12:22:43.824Z,33.90
2018-03-18T12:32:59.113Z,34.10
2018-03-18T12:43:26.718Z,34.10
2018-03-18T12:53:37.046Z,34.20
2018-03-18T13:03:46.876Z,34.10
2018-03-18T13:14:02.844Z,34.30
2018-03-18T13:24:29.251Z,34.30
2018-03-18T13:34:43.040Z,34.40
2018-03-18T13:45:04.359Z,34.50
2018-03-18T13:55:22.024Z,34.50
2018-03-18T14:05:33.860Z,34.60
2018-03-18T14:15:49.849Z,34.80
2018-03-18T14:26:04.215Z,34.70
2018-03-18T14:36:21.198Z,34.70
2018-03-18T14:46:38.191Z,34.50
2018-03-18T14:56:50.762Z,34.50
2018-03-18T15:07:01.732Z,34.70
2018-03-18T15:17:13.592Z,34.60
2018-03-18T15:27:24.015Z,34.60
2018-03-18T15:37:38.099Z,34.60
2018-03-18T15:47:57.639Z,34.90
2018-03-18T15:58:11.804Z,34.80
2018-03-18T16:08:24.806Z,35.10
2018-03-18T16:18:35.733Z,35.10
2018-03-18T16:28:46.090Z,35.10
2018-03-18T16:39:00.555Z,35.30
2018-03-18T16:49:10.594Z,35.40
2018-03-18T16:59:20.016Z,35.40
2018-03-18T17:09:29.400Z,35.60
2018-03-18T17:19:40.454Z,35.80
2018-03-18T17:29:55.680Z,35.80
2018-03-18T17:40:08.966Z,35.70
2018-03-18T18:01:08.647Z,35.50
2018-03-18T18:11:19.894Z,35.80
2018-03-18T18:21:34.201Z,35.80
2018-03-18T18:31:44.516Z,35.90
2018-03-18T18:41:55.682Z,35.90
2018-03-18T18:52:03.711Z,35.80
2018-03-18T19:02:24.175Z,35.90
2018-03-18T19:12:37.175Z,35.80
2018-03-18T19:22:48.232Z,35.90
2018-03-18T19:33:02.840Z,35.90
2018-03-18T19:43:17.434Z,35.80
2018-03-18T19:53:27.698Z,35.80
2018-03-18T20:03:36.948Z,35.70
2018-03-18T20:13:51.037Z,35.70
2018-03-18T20:24:01.923Z,35.80
2018-03-18T20:34:14.216Z,35.90
2018-03-18T20:44:24.843Z,35.80
2018-03-18T20:54:33.553Z,36.00
2018-03-18T21:04:43.240Z,35.90
2018-03-18T21:14:55.856Z,35.90
2018-03-18T21:25:05.510Z,35.90
2018-03-18T21:35:22.666Z,35.90
2018-03-18T21:45:32.657Z,36.00
2018-03-18T21:55:43.178Z,36.10
2018-03-18T22:05:55.431Z,36.10
2018-03-18T22:16:04.825Z,36.10
2018-03-18T22:26:21.907Z,36.10
2018-03-18T22:36:33.001Z,36.10
2018-03-18T22:46:44.506Z,36.10
2018-03-18T22:56:53.461Z,36.60
2018-03-18T23:07:08.928Z,36.60
2018-03-18T23:17:21.681Z,38.40
2018-03-18T23:27:40.068Z,39.30
2018-03-18T23:37:54.484Z,39.40
2018-03-18T23:48:06.283Z,40.00
2018-03-18T23:58:25.450Z,40.00
